Time;durP1;ratioP1;P1;durP2;ratioP2;P2;SDS_P1;SDS_P2;PMS_P1;PMS_P2;Temp;Humidity;BMP_temperature;BMP_pressure;BME280_temperature;BME280_humidity;BME280_pressure;Samples;Min_cycle;Max_cycle;Signal;HPM_P1;HPM_P2
2022/01/27 00:01:43;;;;;;;4.50;2.90;;;;;;;26.07;28.86;97774.38;4926438;29;20066;-58
2022/01/27 00:04:00;;;;;;;5.30;3.17;;;;;;;26.07;28.93;97772.63;4937331;28;20050;-59
2022/01/27 00:06:26;;;;;;;5.88;2.92;;;;;;;26.08;29.04;97768.22;4926373;29;20032;-58
2022/01/27 00:08:57;;;;;;;5.43;3.03;;;;;;;26.08;28.85;97768.22;4940722;28;20031;-59
2022/01/27 00:11:23;;;;;;;5.32;2.80;;;;;;;26.06;28.93;97770.91;4922498;28;20046;-60
2022/01/27 00:13:56;;;;;;;5.78;3.08;;;;;;;26.04;28.90;97764.84;4927747;29;20031;-59
2022/01/27 00:16:28;;;;;;;4.60;2.88;;;;;;;26.07;28.75;97772.63;4923363;29;20110;-59
2022/01/27 00:18:54;;;;;;;4.97;2.83;;;;;;;26.06;29.14;97770.91;4934372;28;20537;-58
2022/01/27 00:21:30;;;;;;;4.10;2.95;;;;;;;26.07;28.64;97764.75;4924557;28;20035;-61
2022/01/27 00:23:56;;;;;;;4.32;2.90;;;;;;;26.06;28.76;97765.66;4916528;29;20043;-61
2022/01/27 00:26:21;;;;;;;4.70;3.00;;;;;;;26.07;28.94;97762.13;4923905;29;20031;-60
2022/01/27 00:28:47;;;;;;;4.75;3.15;;;;;;;26.07;29.10;97767.38;4907805;28;20726;-60
2022/01/27 00:31:13;;;;;;;4.65;2.90;;;;;;;26.06;28.72;97763.03;4923309;28;20063;-59
2022/01/27 00:33:38;;;;;;;6.53;2.70;;;;;;;26.07;28.66;97769.13;4906395;29;20046;-57
2022/01/27 00:36:04;;;;;;;5.25;2.97;;;;;;;26.05;28.77;97761.31;4940379;28;20242;-60
2022/01/27 00:38:30;;;;;;;4.25;2.60;;;;;;;26.06;28.66;97760.41;4935808;28;20023;-60
2022/01/27 00:40:56;;;;;;;4.20;2.65;;;;;;;26.05;29.01;97753.44;4920512;28;20034;-59
2022/01/27 00:43:21;;;;;;;5.20;2.28;;;;;;;26.06;28.80;97749.03;4924244;29;20039;-59
2022/01/27 00:45:47;;;;;;;5.65;2.75;;;;;;;26.06;28.56;97754.28;4922108;29;20035;-60
2022/01/27 00:48:15;;;;;;;4.25;2.70;;;;;;;26.05;28.93;97748.16;4938418;28;20082;-61
2022/01/27 00:50:41;;;;;;;4.68;2.15;;;;;;;26.05;28.51;97748.16;4923671;28;20392;-60
2022/01/27 00:53:21;;;;;;;5.00;2.65;;;;;;;26.04;28.99;97749.09;4912543;29;20094;-60
2022/01/27 00:55:46;;;;;;;4.45;2.63;;;;;;;26.05;28.61;97748.16;4903553;28;20031;-60
2022/01/27 00:58:34;;;;;;;5.25;2.40;;;;;;;26.05;28.84;97742.09;4908096;28;20629;-60
2022/01/27 01:01:02;;;;;;;3.75;2.50;;;;;;;26.04;28.38;97745.59;4908231;29;20780;-61
2022/01/27 01:03:35;;;;;;;3.80;2.55;;;;;;;26.03;28.60;97736.88;4908961;28;20035;-59
2022/01/27 01:06:22;;;;;;;4.03;2.40;;;;;;;26.02;28.88;97737.81;4910370;29;20035;-59
2022/01/27 01:11:51;;;;;;;4.93;2.45;;;;;;;26.01;28.89;97746.56;4907300;29;20476;-59
2022/01/27 01:16:59;;;;;;;4.00;2.40;;;;;;;26.01;28.68;97751.84;4922971;28;20034;-60
2022/01/27 01:19:54;;;;;;;3.60;2.60;;;;;;;26.00;28.65;97749.28;4924238;29;20095;-59
2022/01/27 01:32:57;;;;;;;4.10;1.83;;;;;;;25.98;28.74;97738.84;4924736;29;20039;-60
2022/01/27 01:35:28;;;;;;;4.68;2.50;;;;;;;25.94;28.79;97729.38;4920830;29;20035;-57
2022/01/27 01:37:54;;;;;;;4.50;2.20;;;;;;;25.96;28.76;97733.66;4926623;28;20144;-60
2022/01/27 01:40:20;;;;;;;3.33;2.17;;;;;;;25.96;28.68;97738.03;4924210;28;20126;-59
2022/01/27 01:42:45;;;;;;;3.10;2.15;;;;;;;25.96;28.82;97744.16;4941868;28;20023;-59
2022/01/27 01:45:13;;;;;;;2.88;2.15;;;;;;;25.96;28.56;97743.28;4927499;29;22736;-60
2022/01/27 01:47:38;;;;;;;3.00;2.10;;;;;;;25.96;28.79;97743.28;4923452;29;20039;-60
2022/01/27 01:50:05;;;;;;;3.90;2.00;;;;;;;25.95;28.80;97746.81;4921816;28;20028;-57
2022/01/27 01:52:30;;;;;;;3.70;2.30;;;;;;;25.96;28.62;97738.03;4910551;29;20795;-59
2022/01/27 01:54:56;;;;;;;2.80;1.98;;;;;;;25.95;28.57;97736.31;4921893;29;20031;-60
2022/01/27 01:57:21;;;;;;;2.97;2.10;;;;;;;25.95;29.06;97741.56;4922705;28;20114;-59
2022/01/27 01:59:47;;;;;;;2.40;2.00;;;;;;;25.95;28.43;97737.19;4923339;29;20035;-60
2022/01/27 02:02:13;;;;;;;2.80;2.10;;;;;;;25.95;28.64;97736.31;4923603;29;20034;-57
2022/01/27 02:04:41;;;;;;;3.38;2.47;;;;;;;25.95;28.97;97736.31;4922866;29;20085;-59
2022/01/27 02:07:16;;;;;;;4.03;2.20;;;;;;;25.95;28.56;97736.31;4924609;28;20028;-59
2022/01/27 02:18:01;;;;;;;3.22;2.17;;;;;;;25.93;28.97;97711.91;4920987;29;20050;-60
2022/01/27 02:20:30;;;;;;;;;;;;;;;25.93;28.99;97706.66;4921547;28;20028;-59
2022/01/27 02:22:56;;;;;;;2.72;2.08;;;;;;;25.92;28.54;97710.16;4920845;28;20001;-59
2022/01/27 02:25:21;;;;;;;2.08;1.85;;;;;;;25.91;28.46;97703.22;4937150;28;20662;-60
2022/01/27 02:27:46;;;;;;;2.92;2.03;;;;;;;25.89;28.58;97694.56;4925177;28;20039;-60
2022/01/27 02:30:12;;;;;;;3.10;1.95;;;;;;;25.90;29.01;97698.88;4920977;28;20039;-59
2022/01/27 02:32:37;;;;;;;4.38;2.13;;;;;;;25.89;29.00;97694.56;4921894;29;20153;-59
2022/01/27 02:35:04;;;;;;;2.55;2.00;;;;;;;25.89;28.50;97699.81;4937186;28;20688;-60
2022/01/27 02:37:29;;;;;;;5.72;1.90;;;;;;;25.89;29.09;97697.19;4907530;29;20032;-57
2022/01/27 02:39:55;;;;;;;4.78;2.03;;;;;;;25.89;28.78;97689.31;4922853;28;20874;-60
2022/01/27 02:42:33;;;;;;;2.78;2.00;;;;;;;25.88;29.04;97692.81;4924234;28;20043;-58
2022/01/27 02:45:02;;;;;;;8.52;4.88;;;;;;;25.88;28.78;97690.19;4918510;29;20194;-60
2022/01/27 02:47:27;;;;;;;4.05;3.10;;;;;;;25.83;28.57;97701.72;4937303;28;20090;-60
2022/01/27 02:49:53;;;;;;;4.38;2.22;;;;;;;25.85;28.54;97690.34;4921953;29;20260;-59
2022/01/27 02:52:18;;;;;;;4.35;2.10;;;;;;;25.85;28.96;97698.22;4922430;29;20086;-59
2022/01/27 02:54:44;;;;;;;4.05;2.03;;;;;;;25.83;28.44;97701.72;4929003;29;20756;-58
2022/01/27 02:57:09;;;;;;;3.22;2.15;;;;;;;25.83;28.47;97701.72;4919737;28;20393;-57
2022/01/27 02:59:35;;;;;;;3.85;2.50;;;;;;;25.83;28.48;97698.28;4910237;29;20063;-60
2022/01/27 03:02:00;;;;;;;3.05;2.13;;;;;;;25.84;28.46;97689.47;4918486;28;20043;-60
2022/01/27 03:04:26;;;;;;;2.90;2.08;;;;;;;25.82;28.68;97689.53;4929423;29;20814;-60
2022/01/27 03:06:51;;;;;;;3.72;2.22;;;;;;;25.83;28.82;97696.47;4927667;29;20142;-59
2022/01/27 03:09:17;;;;;;;3.40;1.90;;;;;;;25.83;29.01;97712.25;4926259;29;20128;-59
2022/01/27 03:11:57;;;;;;;2.30;2.03;;;;;;;25.83;28.97;97712.25;4923607;28;20040;-58
2022/01/27 03:14:23;;;;;;;2.70;1.77;;;;;;;25.83;28.69;97717.50;4927544;28;20035;-61
2022/01/27 03:16:49;;;;;;;2.47;1.90;;;;;;;25.82;28.77;97720.19;4927103;29;20142;-59
2022/01/27 03:19:14;;;;;;;2.40;1.80;;;;;;;25.83;28.35;97732.41;4926563;29;20031;-58
2022/01/27 03:21:40;;;;;;;2.97;1.77;;;;;;;25.82;28.96;97728.91;4942058;28;20564;-61
2022/01/27 03:24:06;;;;;;;2.92;1.70;;;;;;;25.82;28.71;97731.53;4924413;29;20039;-59
2022/01/27 03:26:31;;;;;;;4.22;2.00;;;;;;;25.80;28.41;97733.38;4926708;29;20639;-59
2022/01/27 03:28:58;;;;;;;3.10;1.67;;;;;;;25.82;28.67;97739.41;4929798;29;20031;-60
2022/01/27 03:31:24;;;;;;;2.45;1.98;;;;;;;25.83;28.90;97732.41;4931257;29;20030;-60
2022/01/27 03:33:49;;;;;;;1.90;1.65;;;;;;;25.82;28.52;97734.16;4923761;29;20043;-59
2022/01/27 03:36:15;;;;;;;2.08;1.85;;;;;;;25.82;28.35;97725.44;4925963;28;20043;-59
2022/01/27 03:38:40;;;;;;;2.05;1.70;;;;;;;25.80;28.47;97712.38;4926979;29;20417;-60
2022/01/27 03:41:08;;;;;;;4.63;1.70;;;;;;;25.80;28.67;97717.63;4925677;28;20049;-60
2022/01/27 03:43:34;;;;;;;2.13;1.70;;;;;;;25.80;28.89;97715.00;4925995;28;20027;-59
2022/01/27 03:45:59;;;;;;;2.97;1.95;;;;;;;25.79;28.67;97708.06;4925177;29;20111;-59
2022/01/27 03:48:25;;;;;;;3.13;1.80;;;;;;;25.80;28.47;97706.25;4927147;29;20035;-58
2022/01/27 03:50:50;;;;;;;2.63;1.80;;;;;;;25.79;29.00;97692.28;4926301;28;20856;-58
2022/01/27 03:53:16;;;;;;;2.83;1.90;;;;;;;25.79;29.03;97697.53;4926581;29;20606;-60
2022/01/27 03:55:42;;;;;;;3.65;1.77;;;;;;;25.79;28.73;97689.66;4922516;29;20684;-62
2022/01/27 03:58:07;;;;;;;2.35;2.00;;;;;;;25.78;28.64;97694.97;4926353;29;20039;-59
2022/01/27 04:00:33;;;;;;;2.33;1.50;;;;;;;25.77;28.43;97696.72;4924396;28;20043;-60
2022/01/27 04:03:04;;;;;;;2.22;1.60;;;;;;;25.77;28.79;97701.97;4925110;29;20435;-59
2022/01/27 04:05:35;;;;;;;1.98;1.60;;;;;;;25.77;28.96;97695.88;4925938;29;20031;-60
2022/01/27 04:08:02;;;;;;;2.63;1.88;;;;;;;25.76;28.64;97695.03;4926735;28;20733;-60
2022/01/27 04:10:27;;;;;;;2.65;1.80;;;;;;;25.78;28.99;97680.06;4924685;28;20031;-58
2022/01/27 04:12:53;;;;;;;2.60;1.70;;;;;;;25.78;28.87;97677.44;4923560;29;20023;-59
2022/01/27 04:15:18;;;;;;;2.35;1.80;;;;;;;25.76;28.78;97668.78;4924860;28;20034;-57
2022/01/27 04:17:43;;;;;;;2.65;1.65;;;;;;;25.76;29.03;97668.78;4925029;29;20043;-59
2022/01/27 04:20:09;;;;;;;3.28;2.33;;;;;;;25.77;28.76;97669.63;4923226;28;20038;-57
2022/01/27 04:22:34;;;;;;;3.55;1.70;;;;;;;25.77;28.44;97670.47;4924926;29;20043;-60
2022/01/27 04:25:00;;;;;;;2.83;1.55;;;;;;;25.76;28.54;97673.16;4927255;29;20035;-60
2022/01/27 04:27:30;;;;;;;2.22;1.70;;;;;;;25.75;28.45;97669.69;4924158;28;20035;-60
2022/01/27 04:29:56;;;;;;;1.67;1.58;;;;;;;25.74;28.54;97660.09;4924257;28;20035;-59
2022/01/27 04:32:27;;;;;;;2.45;1.65;;;;;;;25.74;28.85;97667.97;4925720;29;20079;-60
2022/01/27 04:34:59;;;;;;;1.90;1.65;;;;;;;25.74;29.00;97660.09;4931103;28;20024;-60
2022/01/27 04:37:25;;;;;;;2.20;1.77;;;;;;;25.74;29.03;97662.72;4923263;29;20142;-59
2022/01/27 04:40:04;;;;;;;1.95;1.42;;;;;;;25.75;28.40;97664.44;4923616;28;20050;-60
2022/01/27 04:43:08;;;;;;;1.65;1.52;;;;;;;25.75;28.49;97667.06;4925356;29;20107;-59
2022/01/27 04:45:25;;;;;;;3.00;1.60;;;;;;;25.74;28.87;97660.09;4923720;29;20071;-61
2022/01/27 04:47:57;;;;;;;2.33;1.85;;;;;;;25.74;28.78;97646.13;4923567;28;20036;-59
2022/01/27 04:50:27;;;;;;;;;;;;;;;25.73;28.97;97653.13;4925195;28;20127;-60
2022/01/27 04:52:55;;;;;;;3.67;2.30;;;;;;;25.74;28.89;97657.47;4925601;29;19918;-60
2022/01/27 04:55:22;;;;;;;1.77;1.45;;;;;;;25.71;28.96;97649.72;4926266;29;20135;-58
2022/01/27 04:57:55;;;;;;;1.67;1.58;;;;;;;25.72;28.44;97658.44;4923086;28;21024;-59
2022/01/27 05:00:20;;;;;;;1.80;1.70;;;;;;;25.71;28.81;97660.22;4923417;28;20035;-60
2022/01/27 05:02:54;;;;;;;2.30;1.70;;;;;;;25.68;28.74;97657.72;4924117;29;20027;-59
2022/01/27 05:05:21;;;;;;;1.60;1.27;;;;;;;25.68;28.95;97666.47;4924363;29;20031;-57
2022/01/27 05:07:54;;;;;;;1.90;1.55;;;;;;;25.69;28.78;97672.53;4923019;29;20023;-57
2022/01/27 05:10:23;;;;;;;2.00;1.70;;;;;;;25.69;28.79;97667.28;4925195;28;20059;-60
2022/01/27 05:12:51;;;;;;;1.75;1.58;;;;;;;25.68;28.64;97676.09;4924420;29;20125;-62
2022/01/27 05:15:18;;;;;;;1.40;1.30;;;;;;;25.68;28.59;97665.59;4943183;28;20086;-60
2022/01/27 05:17:43;;;;;;;1.70;1.33;;;;;;;25.66;28.60;97657.78;4929510;29;20031;-60
2022/01/27 05:20:09;;;;;;;2.63;1.40;;;;;;;25.68;28.93;97660.34;4923099;28;20038;-59
2022/01/27 05:22:35;;;;;;;1.60;1.50;;;;;;;25.69;28.51;97662.03;4925362;29;20035;-59
2022/01/27 05:25:00;;;;;;;2.83;1.63;;;;;;;25.68;28.97;97660.34;4923132;28;20691;-58
2022/01/27 05:27:25;;;;;;;3.92;1.63;;;;;;;25.68;28.82;97655.09;4937498;28;20462;-60
2022/01/27 05:29:52;;;;;;;1.50;1.30;;;;;;;25.66;28.73;97649.91;4924350;28;20178;-57
2022/01/27 05:32:20;;;;;;;1.73;1.50;;;;;;;25.69;28.79;97656.78;4924857;29;20058;-60
2022/01/27 05:34:46;;;;;;;1.60;1.48;;;;;;;25.68;28.80;97655.97;4922173;28;20032;-61
2022/01/27 05:37:11;;;;;;;1.55;1.45;;;;;;;25.67;28.58;97650.75;4929325;29;20094;-60
2022/01/27 05:39:36;;;;;;;1.70;1.48;;;;;;;25.68;28.67;97636.72;4926232;28;20031;-59
2022/01/27 05:42:02;;;;;;;1.88;1.40;;;;;;;25.64;28.81;97625.50;4921538;29;20117;-57
2022/01/27 05:44:28;;;;;;;2.92;1.63;;;;;;;25.67;28.95;97633.22;4936539;28;20743;-59
2022/01/27 05:46:53;;;;;;;1.77;1.38;;;;;;;25.68;28.50;97634.09;4922915;29;20034;-60
2022/01/27 05:49:19;;;;;;;1.98;1.63;;;;;;;25.66;28.50;97631.53;4921738;28;20731;-59
2022/01/27 05:51:44;;;;;;;2.20;1.48;;;;;;;25.66;28.72;97636.78;4922072;28;20044;-60
2022/01/27 05:54:10;;;;;;;2.08;1.52;;;;;;;25.66;28.69;97625.44;4924010;29;20031;-60
2022/01/27 05:56:36;;;;;;;1.13;1.05;;;;;;;25.67;28.54;97637.63;4922214;28;20027;-58
2022/01/27 05:59:02;;;;;;;1.40;1.27;;;;;;;25.65;28.79;97635.06;4923576;29;20039;-59
2022/01/27 06:01:27;;;;;;;4.13;1.55;;;;;;;25.66;28.88;97651.69;4937457;28;20031;-60
2022/01/27 06:03:53;;;;;;;1.42;1.30;;;;;;;25.67;28.77;97659.47;4922764;29;20035;-56
2022/01/27 06:06:18;;;;;;;1.65;1.30;;;;;;;25.66;28.75;97657.78;4921924;28;20031;-60
2022/01/27 06:08:44;;;;;;;1.55;1.38;;;;;;;25.65;28.85;97655.19;4923696;28;20050;-57
2022/01/27 06:11:10;;;;;;;1.98;1.48;;;;;;;25.67;28.79;97667.34;4928869;28;20031;-60
2022/01/27 06:13:36;;;;;;;1.77;1.35;;;;;;;25.67;28.72;97663.88;4920227;29;20039;-59
2022/01/27 06:16:08;;;;;;;1.17;1.08;;;;;;;25.67;28.63;97669.13;4935668;28;20031;-60
2022/01/27 06:18:33;;;;;;;1.35;1.25;;;;;;;25.67;28.41;97654.22;4924503;29;20027;-60
2022/01/27 06:21:03;;;;;;;1.73;1.40;;;;;;;25.67;28.54;97658.63;4922333;28;20050;-60
2022/01/27 06:23:28;;;;;;;1.45;1.35;;;;;;;25.67;28.46;97664.72;4903675;29;20031;-59
2022/01/27 06:25:53;;;;;;;1.60;1.33;;;;;;;25.67;28.85;97659.47;4936093;28;20483;-59
2022/01/27 06:28:19;;;;;;;1.65;1.45;;;;;;;25.68;28.74;97655.09;4922386;29;20682;-60
2022/01/27 06:30:45;;;;;;;1.58;1.25;;;;;;;25.68;28.65;97671.72;4923902;28;20043;-60
2022/01/27 06:33:10;;;;;;;1.75;1.40;;;;;;;25.68;28.74;97665.59;4922768;29;20038;-57
2022/01/27 06:35:36;;;;;;;2.35;1.50;;;;;;;25.69;28.75;97672.53;4917966;29;20666;-59
2022/01/27 06:38:01;;;;;;;1.45;1.35;;;;;;;25.68;28.63;97670.84;4923280;28;20034;-59
2022/01/27 06:40:26;;;;;;;1.85;1.35;;;;;;;25.69;28.59;97683.03;4923866;28;20569;-59
2022/01/27 06:42:52;;;;;;;4.35;2.88;;;;;;;25.69;28.49;97683.03;4918008;29;20098;-60
2022/01/27 06:45:18;;;;;;;3.63;2.35;;;;;;;25.67;28.73;97674.38;4922104;29;20031;-59
2022/01/27 06:47:43;;;;;;;2.10;1.50;;;;;;;25.68;28.57;97681.34;4925343;28;20036;-59
2022/01/27 06:50:09;;;;;;;13.25;4.50;;;;;;;25.68;28.58;97676.09;4923403;29;20033;-60
2022/01/27 06:52:34;;;;;;;16.27;4.40;;;;;;;25.67;28.36;97677.00;4920429;29;20486;-59
2022/01/27 06:55:02;;;;;;;7.63;2.30;;;;;;;25.65;28.80;97678.81;4912816;29;20035;-58
2022/01/27 06:57:28;;;;;;;4.15;2.05;;;;;;;25.63;28.38;97673.63;4921210;29;20035;-59
2022/01/27 06:59:53;;;;;;;3.90;2.20;;;;;;;25.65;28.43;97686.69;4923941;29;20036;-57
2022/01/27 07:02:18;;;;;;;4.55;2.00;;;;;;;25.62;28.77;97679.81;4928466;28;20054;-58
2022/01/27 07:04:44;;;;;;;3.72;1.92;;;;;;;25.64;28.63;97675.38;4926616;28;20605;-59
2022/01/27 07:07:09;;;;;;;2.17;1.75;;;;;;;25.66;28.74;97681.41;4924524;28;20775;-59
2022/01/27 07:09:35;;;;;;;3.70;2.03;;;;;;;25.67;28.60;97679.63;4923978;28;20086;-60
2022/01/27 07:12:00;;;;;;;4.00;1.70;;;;;;;25.68;28.48;97670.84;4918800;28;20092;-58
2022/01/27 07:14:26;;;;;;;2.13;1.75;;;;;;;25.67;28.85;97669.97;4922008;29;20046;-60
2022/01/27 07:16:51;;;;;;;8.43;3.85;;;;;;;25.68;28.70;97670.84;4933593;28;20406;-60
2022/01/27 07:19:16;;;;;;;11.73;4.90;;;;;;;25.65;28.15;97671.81;4918559;29;20108;-60
2022/01/27 07:21:42;;;;;;;6.47;3.10;;;;;;;25.64;28.12;97664.00;4922211;28;20020;-57
2022/01/27 07:24:07;;;;;;;5.13;2.55;;;;;;;25.63;28.30;97667.53;4921170;29;20403;-60
2022/01/27 07:26:33;;;;;;;8.65;2.80;;;;;;;25.63;28.59;97672.78;4921536;28;20050;-58
2022/01/27 07:28:58;;;;;;;3.00;2.58;;;;;;;25.62;28.55;97668.47;4918093;28;20042;-61
2022/01/27 07:31:24;;;;;;;4.60;3.30;;;;;;;25.60;28.28;97673.78;4916291;28;20032;-60
2022/01/27 07:33:52;;;;;;;6.07;3.60;;;;;;;25.60;28.61;97679.03;4915650;28;20036;-58
2022/01/27 07:36:17;;;;;;;6.00;3.20;;;;;;;25.61;28.28;97685.09;4914917;29;20027;-60
2022/01/27 07:38:43;;;;;;;4.25;2.70;;;;;;;25.61;28.51;97685.09;4912172;28;20058;-60
2022/01/27 07:41:09;;;;;;;4.05;2.67;;;;;;;25.60;28.66;97680.78;4920522;28;20020;-60
2022/01/27 07:43:34;;;;;;;6.47;2.55;;;;;;;25.62;28.53;97681.59;4919943;29;20049;-57
2022/01/27 07:46:00;;;;;;;3.35;2.25;;;;;;;25.62;28.48;97686.84;4918353;29;20023;-60
2022/01/27 07:48:28;;;;;;;5.47;2.45;;;;;;;25.65;28.47;97691.94;4922342;29;20087;-58
2022/01/27 07:50:54;;;;;;;5.00;3.60;;;;;;;25.65;28.51;97692.81;4924859;28;20038;-60
2022/01/27 07:53:21;;;;;;;6.07;3.22;;;;;;;25.67;28.75;97700.63;4924198;29;20027;-60
2022/01/27 07:55:47;;;;;;;7.47;3.28;;;;;;;25.67;28.48;97704.09;4925804;28;20129;-60
2022/01/27 07:58:12;;;;;;;7.30;3.53;;;;;;;25.67;28.32;97698.84;4937961;28;20031;-61
2022/01/27 08:00:39;;;;;;;10.38;3.65;;;;;;;25.68;28.34;97697.09;4920296;28;20024;-58
2022/01/27 08:03:04;;;;;;;8.25;3.20;;;;;;;25.69;28.77;97701.41;4924513;28;20031;-61
2022/01/27 08:05:29;;;;;;;10.27;3.53;;;;;;;25.70;28.22;97700.50;4923635;29;20920;-60
2022/01/27 08:07:55;;;;;;;8.13;3.40;;;;;;;25.70;28.88;97700.50;4923733;28;20023;-60
2022/01/27 08:10:20;;;;;;;12.80;3.42;;;;;;;25.70;28.64;97704.00;4937091;28;20067;-60
2022/01/27 08:12:46;;;;;;;10.00;3.53;;;;;;;25.72;28.88;97703.06;4923198;29;20038;-60
2022/01/27 08:15:11;;;;;;;9.82;3.72;;;;;;;25.73;28.63;97705.63;4925828;29;20038;-60
2022/01/27 08:17:38;;;;;;;9.15;3.60;;;;;;;25.72;28.31;97709.19;4922134;29;20035;-61
2022/01/27 08:20:04;;;;;;;8.20;3.10;;;;;;;25.73;28.93;97716.16;4926438;29;20069;-61
2022/01/27 08:22:29;;;;;;;7.25;3.28;;;;;;;25.74;28.92;97699.47;4925830;28;20024;-63
2022/01/27 08:24:54;;;;;;;9.23;3.58;;;;;;;25.74;28.58;97707.34;4927205;29;20042;-58
2022/01/27 08:27:25;;;;;;;8.18;3.30;;;;;;;25.76;28.67;97713.41;4922223;29;20044;-60
2022/01/27 08:29:56;;;;;;;9.38;3.63;;;;;;;25.76;28.38;97709.91;4926675;28;20035;-61
2022/01/27 08:32:31;;;;;;;8.13;3.47;;;;;;;25.76;28.79;97710.78;4941453;28;20076;-61
2022/01/27 08:34:56;;;;;;;8.77;3.55;;;;;;;25.78;28.38;97706.31;4921111;29;20027;-60
2022/01/27 08:37:21;;;;;;;11.93;4.15;;;;;;;25.78;28.54;97708.09;4920421;28;20034;-60
2022/01/27 08:39:47;;;;;;;12.88;3.85;;;;;;;25.79;28.44;97709.81;4925458;28;20027;-58
2022/01/27 08:42:13;;;;;;;8.18;3.90;;;;;;;25.78;28.44;97703.69;4928927;29;20122;-61
2022/01/27 08:44:38;;;;;;;8.95;3.80;;;;;;;25.77;28.43;97699.34;4928578;29;20246;-59
2022/01/27 08:47:04;;;;;;;8.93;3.83;;;;;;;25.77;28.23;97707.25;4941212;28;20035;-61
2022/01/27 08:49:29;;;;;;;9.23;3.85;;;;;;;25.76;28.63;97716.03;4932857;29;20044;-60
2022/01/27 08:51:55;;;;;;;8.13;3.83;;;;;;;25.75;28.12;97714.34;4928986;28;20035;-59
2022/01/27 08:54:20;;;;;;;7.43;3.63;;;;;;;25.74;28.36;97707.34;4926485;28;20146;-61
2022/01/27 08:56:46;;;;;;;8.52;3.53;;;;;;;25.76;28.15;97716.03;4926848;28;20051;-58
2022/01/27 08:59:11;;;;;;;8.38;3.30;;;;;;;25.75;28.67;97719.59;4923600;29;20032;-61
2022/01/27 09:01:37;;;;;;;7.80;3.42;;;;;;;25.75;28.43;97721.34;4924888;28;20126;-61
2022/01/27 09:04:03;;;;;;;6.88;3.85;;;;;;;25.72;28.52;97719.69;4926329;28;20613;-60
2022/01/27 09:06:29;;;;;;;6.35;3.45;;;;;;;25.77;28.57;97722.13;4932018;29;20102;-61
2022/01/27 09:08:54;;;;;;;8.15;3.22;;;;;;;25.75;28.36;97714.34;4941813;28;20039;-61
2022/01/27 09:11:20;;;;;;;7.38;3.38;;;;;;;25.76;28.21;97726.53;4942527;28;20040;-61
2022/01/27 09:13:45;;;;;;;6.93;3.38;;;;;;;25.76;28.44;97716.03;4923709;29;20023;-61
2022/01/27 09:16:11;;;;;;;9.30;3.75;;;;;;;25.76;28.00;97702.91;4924553;28;20038;-61
2022/01/27 09:18:37;;;;;;;11.70;3.55;;;;;;;25.76;28.61;97708.16;4921567;28;20035;-59
2022/01/27 09:21:06;;;;;;;10.45;3.67;;;;;;;25.76;28.32;97710.78;4920946;28;20821;-60
2022/01/27 09:23:33;;;;;;;6.68;3.53;;;;;;;25.76;28.08;97705.53;4922946;29;20035;-60
2022/01/27 09:26:03;;;;;;;9.68;3.47;;;;;;;25.76;28.28;97710.78;4924284;29;20030;-61
2022/01/27 09:28:29;;;;;;;8.47;3.80;;;;;;;25.77;28.54;97704.59;4923822;29;20062;-60
2022/01/27 09:30:56;;;;;;;7.53;3.47;;;;;;;25.76;28.73;97718.66;4925143;28;20291;-61
2022/01/27 09:33:21;;;;;;;7.93;3.70;;;;;;;25.76;28.35;97710.78;4924018;28;20070;-59
2022/01/27 09:35:47;;;;;;;8.23;3.60;;;;;;;25.77;28.46;97716.88;4937617;28;20497;-60
2022/01/27 09:38:12;;;;;;;6.22;3.75;;;;;;;25.76;28.13;97707.28;4921971;29;20031;-61
2022/01/27 09:40:38;;;;;;;6.78;3.60;;;;;;;25.78;28.75;97711.56;4926324;28;20110;-61
2022/01/27 09:43:04;;;;;;;8.05;3.53;;;;;;;25.79;28.73;97710.69;4922164;28;20042;-60
2022/01/27 09:45:39;;;;;;;11.85;3.85;;;;;;;25.81;28.52;97708.84;4919881;29;20069;-59
2022/01/27 09:48:17;;;;;;;6.70;3.83;;;;;;;25.82;28.18;97709.69;4905058;28;20031;-61
2022/01/27 09:50:49;;;;;;;7.35;3.55;;;;;;;25.82;28.31;97694.78;4921199;28;20094;-62
2022/01/27 09:53:15;;;;;;;9.95;3.63;;;;;;;25.85;28.42;97695.59;4923708;28;20049;-61
2022/01/27 09:55:41;;;;;;;8.93;3.60;;;;;;;25.85;28.60;97685.09;4917950;28;20054;-60
2022/01/27 09:58:07;;;;;;;6.88;3.35;;;;;;;25.86;28.59;97681.53;4925698;28;20027;-61
2022/01/27 10:00:32;;;;;;;7.68;3.50;;;;;;;25.87;28.24;97685.88;4922294;29;20050;-61
2022/01/27 10:03:08;;;;;;;6.90;3.30;;;;;;;25.87;28.71;97686.75;4924757;28;20028;-61
2022/01/27 10:05:34;;;;;;;7.40;3.20;;;;;;;25.88;28.33;97677.06;4918718;29;20821;-60
2022/01/27 10:08:01;;;;;;;5.80;3.40;;;;;;;25.88;28.64;97682.31;4918156;29;20031;-61
2022/01/27 10:10:27;;;;;;;8.02;3.30;;;;;;;25.88;28.15;97685.81;4921576;28;20059;-61
2022/01/27 10:12:54;;;;;;;6.07;3.42;;;;;;;25.87;28.49;97676.22;4920913;28;20041;-60
2022/01/27 10:15:21;;;;;;;6.40;3.33;;;;;;;25.90;28.54;97680.50;4922223;28;20031;-61
2022/01/27 10:18:17;;;;;;;6.00;3.10;;;;;;;25.91;28.79;97671.72;4921864;28;20960;-61
2022/01/27 10:20:44;;;;;;;6.38;3.13;;;;;;;25.92;28.49;97674.28;4912722;28;20071;-60
2022/01/27 10:23:23;;;;;;;6.30;3.08;;;;;;;25.94;28.44;97671.59;4901147;29;20051;-61
2022/01/27 10:25:54;;;;;;;6.68;2.97;;;;;;;25.95;28.53;97660.16;4922110;29;20036;-60
2022/01/27 10:28:35;;;;;;;5.32;3.00;;;;;;;25.97;28.61;97655.69;4906301;29;20031;-59
2022/01/27 10:31:04;;;;;;;8.35;3.00;;;;;;;25.96;28.54;97659.25;4922664;28;20664;-60
2022/01/27 10:33:52;;;;;;;6.97;3.30;;;;;;;25.96;28.36;97659.25;4916154;28;20042;-61
2022/01/27 10:36:21;;;;;;;5.50;2.95;;;;;;;25.97;28.36;97663.56;4919413;28;21211;-60
2022/01/27 10:38:48;;;;;;;4.85;2.83;;;;;;;25.99;28.82;97674.88;4922236;28;20070;-60
2022/01/27 10:41:13;;;;;;;7.47;3.03;;;;;;;25.99;28.69;97667.00;4925376;28;20026;-59
2022/01/27 10:43:40;;;;;;;13.45;3.33;;;;;;;26.00;28.18;97673.13;4936226;28;20119;-60
2022/01/27 10:49:03;;;;;;;6.53;3.00;;;;;;;26.00;28.29;97660.00;4920532;29;20069;-60
2022/01/27 10:51:33;;;;;;;4.65;3.10;;;;;;;26.01;28.46;97659.91;4918707;29;20150;-61
2022/01/27 10:54:08;;;;;;;7.97;3.25;;;;;;;26.01;28.16;97657.28;4918632;29;20042;-61
2022/01/27 10:56:38;;;;;;;5.63;2.97;;;;;;;26.01;28.55;97654.66;4936164;28;20024;-62
2022/01/27 10:59:05;;;;;;;4.70;2.88;;;;;;;26.02;28.16;97655.53;4922131;28;20027;-60
2022/01/27 11:01:37;;;;;;;5.85;3.20;;;;;;;26.01;28.35;97657.28;4918467;28;20039;-61
2022/01/27 11:04:04;;;;;;;3.50;2.65;;;;;;;26.04;28.66;97657.16;4921062;28;20050;-61
2022/01/27 11:06:32;;;;;;;4.15;2.63;;;;;;;26.05;28.15;97658.03;4917159;29;20120;-60
2022/01/27 11:09:01;;;;;;;7.05;3.30;;;;;;;26.05;28.47;97661.50;4919768;28;20105;-62
2022/01/27 11:11:27;;;;;;;6.13;2.90;;;;;;;26.04;28.12;97651.91;4919004;28;20031;-63
2022/01/27 11:13:54;;;;;;;13.07;3.58;;;;;;;26.04;28.65;97657.16;4907690;28;20042;-63
2022/01/27 11:16:23;;;;;;;6.75;3.35;;;;;;;26.03;28.59;97655.47;4915757;29;20023;-64
2022/01/27 11:18:49;;;;;;;9.35;3.60;;;;;;;26.01;28.01;97654.66;4919379;29;20036;-63
2022/01/27 11:21:33;;;;;;;6.90;3.17;;;;;;;26.03;28.21;97650.22;4921588;29;20095;-63
2022/01/27 11:24:15;;;;;;;6.82;3.40;;;;;;;26.02;28.24;97643.25;4920512;28;20306;-64
2022/01/27 11:26:40;;;;;;;7.88;3.33;;;;;;;26.02;28.58;97648.50;4939113;28;20755;-63
2022/01/27 11:29:06;;;;;;;5.53;2.78;;;;;;;26.03;27.96;97644.97;4925886;29;20039;-62
2022/01/27 11:32:03;;;;;;;10.38;3.00;;;;;;;26.04;28.23;97632.66;4924316;28;20036;-64
2022/01/27 11:34:46;;;;;;;8.18;3.28;;;;;;;26.04;28.61;97630.91;4921645;29;20038;-62
2022/01/27 11:37:12;;;;;;;9.88;2.78;;;;;;;26.05;28.32;97632.59;4922494;29;20023;-63
2022/01/27 11:40:01;;;;;;;4.78;2.70;;;;;;;26.06;28.54;97625.59;4926973;29;20039;-60
2022/01/27 11:42:37;;;;;;;8.70;3.00;;;;;;;26.07;28.66;97619.41;4922877;29;21001;-64
2022/01/27 11:45:33;;;;;;;5.95;2.80;;;;;;;26.08;28.63;97616.72;4925992;29;20077;-63
2022/01/27 11:48:02;;;;;;;4.65;2.70;;;;;;;26.08;28.34;97611.47;4923173;29;20043;-63
2022/01/27 11:50:36;;;;;;;5.43;2.78;;;;;;;26.08;28.67;97616.72;4937262;28;20078;-63
2022/01/27 11:53:06;;;;;;;5.05;2.85;;;;;;;26.10;28.41;97614.03;4924653;29;20082;-62
2022/01/27 11:55:43;;;;;;;5.90;2.40;;;;;;;26.09;28.14;97607.91;4923330;29;20542;-62
2022/01/27 11:58:17;;;;;;;5.20;2.55;;;;;;;26.09;28.45;97604.47;4925244;29;20079;-62
2022/01/27 12:01:14;;;;;;;5.38;2.72;;;;;;;26.12;28.21;97595.59;4922654;28;20873;-62
2022/01/27 12:03:40;;;;;;;5.07;2.58;;;;;;;26.12;28.49;97592.97;4925845;29;20031;-63
2022/01/27 12:06:18;;;;;;;4.22;2.65;;;;;;;26.13;28.22;97586.78;4924803;29;20761;-60